createdAt,value
2022-11-20T00:00:26.283Z,-1.06
2022-11-20T00:02:52.095Z,-1.14
2022-11-20T00:05:18.530Z,-1.21
2022-11-20T00:07:44.332Z,-1.24
2022-11-20T00:10:10.301Z,-1.29
2022-11-20T00:12:36.089Z,-1.19
2022-11-20T00:15:01.917Z,-1.13
2022-11-20T00:17:27.734Z,-0.95
2022-11-20T00:19:53.586Z,-0.94
2022-11-20T00:22:19.613Z,-0.90
2022-11-20T00:24:45.428Z,-0.79
2022-11-20T00:27:11.304Z,-0.64
2022-11-20T00:29:37.086Z,-0.52
2022-11-20T00:32:02.999Z,-0.53
2022-11-20T00:34:28.805Z,-0.57
2022-11-20T00:36:54.549Z,-0.44
2022-11-20T00:39:20.558Z,-0.42
2022-11-20T00:41:46.514Z,-0.39
2022-11-20T00:44:12.315Z,-0.25
2022-11-20T00:46:38.189Z,-0.25
2022-11-20T00:49:04.033Z,-0.24
2022-11-20T00:51:29.826Z,-0.48
2022-11-20T00:53:57.688Z,-0.31
2022-11-20T00:56:23.767Z,-0.40
2022-11-20T00:58:49.641Z,-0.30
2022-11-20T01:01:18.250Z,-0.32
2022-11-20T01:03:46.153Z,-0.16
2022-11-20T01:06:13.156Z,-0.32
2022-11-20T01:08:40.248Z,-0.14
2022-11-20T01:11:14.870Z,0.02
2022-11-20T01:13:41.555Z,0.04
2022-11-20T01:16:18.129Z,-0.11
2022-11-20T01:18:48.267Z,-0.10
2022-11-20T01:21:19.035Z,-0.07
2022-11-20T01:23:45.558Z,-0.02
2022-11-20T01:26:15.142Z,0.04
2022-11-20T01:28:41.716Z,0.12
2022-11-20T01:31:15.603Z,0.17
2022-11-20T01:33:42.549Z,0.24
2022-11-20T01:36:08.886Z,-0.07
2022-11-20T01:38:34.996Z,0.11
2022-11-20T01:41:00.850Z,-0.08
2022-11-20T01:43:28.675Z,0.02
2022-11-20T01:46:09.491Z,-0.02
2022-11-20T01:48:44.886Z,-0.02
2022-11-20T01:51:29.859Z,0.08
2022-11-20T01:53:59.828Z,-0.05
2022-11-20T01:56:28.726Z,-0.05
2022-11-20T01:58:58.231Z,-0.09
2022-11-20T02:01:24.497Z,0.06
2022-11-20T02:03:51.013Z,0.11
2022-11-20T02:06:26.068Z,0.21
2022-11-20T02:08:52.933Z,0.00
2022-11-20T02:11:19.362Z,-0.07
2022-11-20T02:13:45.927Z,0.10
2022-11-20T02:16:28.850Z,0.02
2022-11-20T02:18:57.530Z,0.12
2022-11-20T02:21:55.811Z,0.13
2022-11-20T02:24:23.057Z,0.05
2022-11-20T02:27:01.391Z,0.14
2022-11-20T02:29:34.526Z,0.23
2022-11-20T02:32:02.291Z,0.27
2022-11-20T02:34:29.168Z,0.17
2022-11-20T02:36:56.908Z,0.16
2022-11-20T02:39:25.593Z,0.28
2022-11-20T02:41:54.356Z,0.42
2022-11-20T02:44:20.641Z,0.43
2022-11-20T02:46:47.395Z,0.58
2022-11-20T02:49:13.299Z,0.63
2022-11-20T02:51:39.701Z,0.63
2022-11-20T02:54:05.544Z,0.57
2022-11-20T02:56:31.853Z,0.35
2022-11-20T02:58:57.651Z,0.42
2022-11-20T03:01:23.553Z,0.54
2022-11-20T03:03:49.487Z,0.50
2022-11-20T03:06:16.810Z,0.56
2022-11-20T03:08:42.979Z,0.51
2022-11-20T03:11:09.729Z,0.45
2022-11-20T03:13:36.076Z,0.59
2022-11-20T03:16:12.018Z,0.64
2022-11-20T03:18:39.693Z,0.68
2022-11-20T03:21:06.962Z,0.56
2022-11-20T03:23:34.793Z,0.66
2022-11-20T03:26:17.447Z,0.57
2022-11-20T03:28:54.286Z,0.48
2022-11-20T03:31:22.827Z,0.36
2022-11-20T03:33:49.098Z,0.33
2022-11-20T03:36:17.125Z,0.17
2022-11-20T03:38:43.323Z,0.11
2022-11-20T03:41:14.334Z,0.09
2022-11-20T03:43:40.560Z,-0.13
2022-11-20T03:46:07.573Z,0.10
2022-11-20T03:48:33.701Z,0.12
2022-11-20T03:51:14.690Z,0.13
2022-11-20T03:53:42.601Z,0.08
2022-11-20T03:56:10.340Z,-0.03
2022-11-20T03:58:38.027Z,0.17
2022-11-20T04:01:15.743Z,0.36
2022-11-20T04:03:42.571Z,0.07
2022-11-20T04:06:20.206Z,-0.04
2022-11-20T04:08:51.015Z,-0.09
2022-11-20T04:11:22.539Z,-0.22
2022-11-20T04:13:52.203Z,-0.14
2022-11-20T04:16:19.217Z,-0.17
2022-11-20T04:18:45.193Z,0.01
2022-11-20T04:21:11.321Z,-0.04
2022-11-20T04:23:37.624Z,0.08
2022-11-20T04:26:09.117Z,0.08
2022-11-20T04:28:35.813Z,0.06
2022-11-20T04:31:10.073Z,-0.07
2022-11-20T04:33:37.156Z,-0.07
2022-11-20T04:36:10.869Z,0.11
2022-11-20T04:38:36.718Z,0.17
2022-11-20T04:41:08.185Z,0.19
2022-11-20T04:43:34.525Z,0.21
2022-11-20T04:46:01.401Z,0.35
2022-11-20T04:48:28.560Z,0.46
2022-11-20T04:50:54.450Z,0.52
2022-11-20T04:53:21.405Z,0.53
2022-11-20T04:55:47.411Z,0.54
2022-11-20T04:58:13.408Z,0.52
2022-11-20T05:00:39.667Z,0.65
2022-11-20T05:03:06.097Z,0.67
2022-11-20T05:05:34.626Z,0.65
2022-11-20T05:08:00.659Z,0.72
2022-11-20T05:10:27.010Z,0.69
2022-11-20T05:12:53.299Z,0.75
2022-11-20T05:15:19.869Z,0.73
2022-11-20T05:17:52.657Z,0.75
2022-11-20T05:20:19.930Z,0.79
2022-11-20T05:22:46.525Z,0.70
2022-11-20T05:25:12.597Z,0.75
2022-11-20T05:27:38.529Z,0.81
2022-11-20T05:30:05.549Z,0.76
2022-11-20T05:32:31.346Z,0.89
2022-11-20T05:34:57.259Z,0.88
2022-11-20T05:37:23.051Z,0.83
2022-11-20T05:39:49.000Z,0.91
2022-11-20T05:42:33.134Z,0.89
2022-11-20T05:45:00.537Z,0.84
2022-11-20T05:47:28.294Z,0.74
2022-11-20T05:49:54.286Z,0.66
2022-11-20T05:52:20.611Z,0.79
2022-11-20T05:54:46.382Z,0.81
2022-11-20T05:57:12.228Z,0.78
2022-11-20T05:59:38.006Z,0.79
2022-11-20T06:02:03.781Z,0.75
2022-11-20T06:04:29.749Z,0.78
2022-11-20T06:06:55.525Z,0.66
2022-11-20T06:09:21.553Z,0.77
2022-11-20T06:11:47.470Z,0.72
2022-11-20T06:14:13.227Z,0.71
2022-11-20T06:16:39.015Z,0.72
2022-11-20T06:19:04.861Z,0.76
2022-11-20T06:21:30.651Z,0.60
2022-11-20T06:23:56.475Z,0.61
2022-11-20T06:26:24.192Z,0.74
2022-11-20T06:28:50.390Z,0.69
2022-11-20T06:31:19.290Z,0.66
2022-11-20T06:33:45.279Z,0.56
2022-11-20T06:36:13.469Z,0.59
2022-11-20T06:38:40.088Z,0.62
2022-11-20T06:41:10.289Z,0.63
2022-11-20T06:43:36.210Z,0.62
2022-11-20T06:46:02.084Z,0.61
2022-11-20T06:48:28.844Z,0.63
2022-11-20T06:50:54.764Z,0.67
2022-11-20T06:53:21.383Z,0.66
2022-11-20T06:55:48.040Z,0.68
2022-11-20T06:58:15.603Z,0.72
2022-11-20T07:00:41.971Z,0.77
2022-11-20T07:03:09.234Z,0.74
2022-11-20T07:05:35.911Z,0.66
2022-11-20T07:08:02.965Z,0.82
2022-11-20T07:10:28.811Z,0.80
2022-11-20T07:12:55.302Z,0.70
2022-11-20T07:15:23.309Z,0.64
2022-11-20T07:17:49.174Z,0.65
2022-11-20T07:20:15.737Z,0.64
2022-11-20T07:22:41.811Z,0.65
2022-11-20T07:25:08.284Z,0.76
2022-11-20T07:27:34.550Z,0.74
2022-11-20T07:30:00.672Z,0.72
2022-11-20T07:32:26.640Z,0.83
2022-11-20T07:34:52.475Z,0.82
2022-11-20T07:37:19.339Z,0.82
2022-11-20T07:39:45.119Z,0.79
2022-11-20T07:42:12.459Z,0.79
2022-11-20T07:44:38.916Z,0.84
2022-11-20T07:47:05.030Z,0.91
2022-11-20T07:49:30.867Z,0.92
2022-11-20T07:52:01.745Z,0.94
2022-11-20T07:54:30.100Z,0.75
2022-11-20T07:56:55.873Z,0.83
2022-11-20T07:59:21.960Z,0.98
2022-11-20T08:01:47.975Z,0.91
2022-11-20T08:04:15.580Z,0.81
2022-11-20T08:06:41.367Z,0.90
2022-11-20T08:09:07.201Z,0.84
2022-11-20T08:11:51.320Z,0.83
2022-11-20T08:14:17.210Z,0.81
2022-11-20T08:16:45.974Z,0.94
2022-11-20T08:19:15.732Z,1.00
2022-11-20T08:21:41.875Z,1.01
2022-11-20T08:24:09.055Z,1.09
2022-11-20T08:26:36.249Z,1.12
2022-11-20T08:29:02.010Z,1.16
2022-11-20T08:31:28.299Z,1.18
2022-11-20T08:33:54.320Z,1.05
2022-11-20T08:36:21.900Z,1.13
2022-11-20T08:38:52.762Z,1.12
2022-11-20T08:41:25.748Z,1.32
2022-11-20T08:43:54.560Z,1.35
2022-11-20T08:46:21.009Z,1.41
2022-11-20T08:48:47.001Z,1.39
2022-11-20T08:51:13.389Z,1.30
2022-11-20T08:53:40.099Z,1.20
2022-11-20T08:56:06.969Z,1.20
2022-11-20T08:58:48.878Z,1.23
2022-11-20T09:01:20.413Z,1.43
2022-11-20T09:03:46.590Z,1.72
2022-11-20T09:06:13.185Z,1.81
2022-11-20T09:08:39.811Z,1.83
2022-11-20T09:11:06.245Z,1.86
2022-11-20T09:13:33.398Z,1.91
2022-11-20T09:16:03.110Z,1.92
2022-11-20T09:18:31.954Z,2.07
2022-11-20T09:20:59.798Z,2.10
2022-11-20T09:23:27.262Z,2.61
2022-11-20T09:25:55.566Z,3.07
2022-11-20T09:28:22.016Z,3.51
2022-11-20T09:30:48.005Z,4.76
2022-11-20T09:33:14.212Z,7.75
2022-11-20T09:35:40.034Z,12.54
2022-11-20T09:38:07.195Z,17.04
2022-11-20T09:40:36.015Z,20.79
2022-11-20T09:43:21.380Z,22.12
2022-11-20T09:46:09.126Z,20.17
2022-11-20T09:49:07.124Z,19.28
2022-11-20T09:51:46.537Z,15.12
2022-11-20T09:54:21.039Z,10.77
2022-11-20T09:57:02.818Z,7.71
2022-11-20T09:59:40.756Z,6.14
2022-11-20T10:02:36.554Z,4.54
2022-11-20T10:05:11.354Z,3.97
2022-11-20T10:08:09.960Z,3.50
2022-11-20T10:10:44.696Z,3.14
2022-11-20T10:13:20.604Z,2.97
2022-11-20T10:16:11.322Z,2.78
2022-11-20T10:19:10.804Z,2.64
2022-11-20T10:21:58.036Z,2.53
2022-11-20T10:24:41.889Z,2.21
2022-11-20T10:27:32.866Z,2.00
2022-11-20T10:30:03.515Z,2.12
2022-11-20T10:32:40.744Z,2.18
2022-11-20T10:35:22.693Z,2.18
2022-11-20T10:37:54.043Z,1.96
2022-11-20T10:40:29.394Z,2.16
2022-11-20T10:43:18.021Z,2.05
2022-11-20T10:45:48.333Z,1.98
2022-11-20T10:48:23.628Z,1.87
2022-11-20T10:50:57.939Z,1.83
2022-11-20T10:53:58.952Z,1.63
2022-11-20T10:56:27.419Z,1.73
2022-11-20T10:59:04.949Z,1.78
2022-11-20T11:01:30.750Z,1.60
2022-11-20T11:03:58.705Z,1.68
2022-11-20T11:06:47.376Z,1.61
2022-11-20T11:09:25.486Z,1.47
2022-11-20T11:11:51.772Z,1.59
2022-11-20T11:14:17.608Z,1.74
2022-11-20T11:16:55.895Z,1.86
2022-11-20T11:19:22.438Z,2.05
2022-11-20T11:21:55.441Z,2.10
2022-11-20T11:24:45.202Z,2.15
2022-11-20T11:27:16.938Z,2.10
2022-11-20T11:29:43.954Z,2.00
2022-11-20T11:32:18.030Z,2.11
2022-11-20T11:34:43.935Z,2.18
2022-11-20T11:37:19.911Z,2.13
2022-11-20T11:39:49.367Z,2.22
2022-11-20T11:42:21.245Z,2.23
2022-11-20T11:45:06.864Z,2.34
2022-11-20T11:47:41.721Z,2.37
2022-11-20T11:50:10.591Z,2.34
2022-11-20T11:52:54.367Z,2.41
2022-11-20T11:55:43.407Z,2.39
2022-11-20T11:58:34.184Z,2.44
2022-11-20T12:01:42.501Z,2.14
2022-11-20T12:04:22.913Z,2.12
2022-11-20T12:06:58.369Z,2.24
2022-11-20T12:09:36.279Z,2.20
2022-11-20T12:12:11.172Z,2.13
2022-11-20T12:14:48.270Z,2.10
2022-11-20T12:17:14.587Z,2.15
2022-11-20T12:19:41.470Z,2.20
2022-11-20T12:22:31.466Z,2.26
2022-11-20T12:25:19.983Z,2.30
2022-11-20T12:28:01.074Z,2.03
2022-11-20T12:30:27.166Z,1.90
2022-11-20T12:33:17.542Z,1.97
2022-11-20T12:35:54.620Z,2.00
2022-11-20T12:38:54.420Z,1.91
2022-11-20T12:42:03.564Z,1.78
2022-11-20T12:45:06.600Z,1.94
2022-11-20T12:47:54.887Z,1.87
2022-11-20T12:51:00.124Z,1.83
2022-11-20T12:53:37.160Z,1.69
2022-11-20T12:56:27.575Z,1.86
2022-11-20T12:59:21.766Z,1.76
2022-11-20T13:02:22.167Z,1.84
2022-11-20T13:05:06.834Z,1.66
2022-11-20T13:07:35.388Z,1.55
2022-11-20T13:10:01.950Z,1.65
2022-11-20T13:12:40.643Z,1.72
2022-11-20T13:15:27.020Z,1.73
2022-11-20T13:18:02.173Z,1.70
2022-11-20T13:20:30.408Z,1.69
2022-11-20T13:23:00.275Z,1.58
2022-11-20T13:25:38.079Z,1.77
2022-11-20T13:28:26.063Z,1.85
2022-11-20T13:30:55.359Z,1.82
2022-11-20T13:33:26.936Z,1.91
2022-11-20T13:36:02.345Z,2.08
2022-11-20T13:38:33.820Z,1.89
2022-11-20T13:41:24.393Z,1.88
2022-11-20T13:43:52.286Z,1.98
2022-11-20T13:46:24.566Z,2.11
2022-11-20T13:48:51.740Z,2.02
2022-11-20T13:52:15.800Z,2.14
2022-11-20T13:55:02.730Z,2.07
2022-11-20T13:57:51.764Z,2.16
2022-11-20T14:00:20.292Z,2.08
2022-11-20T14:03:06.388Z,2.24
2022-11-20T14:05:35.692Z,2.18
2022-11-20T14:08:05.831Z,2.06
2022-11-20T14:10:32.648Z,2.25
2022-11-20T14:12:59.176Z,2.17
2022-11-20T14:15:30.999Z,1.98
2022-11-20T14:17:58.019Z,1.86
2022-11-20T14:20:31.452Z,1.87
2022-11-20T14:22:57.328Z,1.93
2022-11-20T14:25:27.526Z,2.07
2022-11-20T14:28:01.197Z,2.08
2022-11-20T14:30:43.142Z,2.08
2022-11-20T14:33:12.412Z,1.96
2022-11-20T14:35:45.891Z,1.92
2022-11-20T14:38:17.208Z,1.90
2022-11-20T14:40:43.678Z,1.91
2022-11-20T14:43:20.792Z,1.77
2022-11-20T14:45:55.584Z,1.85
2022-11-20T14:48:27.904Z,1.92
2022-11-20T14:50:53.727Z,1.85
2022-11-20T14:53:24.259Z,2.06
2022-11-20T14:55:58.997Z,1.94
2022-11-20T14:58:28.377Z,1.85
2022-11-20T15:01:06.110Z,1.86
2022-11-20T15:03:40.732Z,1.90
2022-11-20T15:06:12.517Z,1.98
2022-11-20T15:08:38.349Z,2.12
2022-11-20T15:11:18.040Z,2.00
2022-11-20T15:13:43.948Z,2.11
2022-11-20T15:16:21.302Z,2.17
2022-11-20T15:18:47.949Z,2.14
2022-11-20T15:21:16.751Z,2.15
2022-11-20T15:23:43.699Z,2.16
2022-11-20T15:26:15.409Z,2.25
2022-11-20T15:28:47.868Z,2.24
2022-11-20T15:31:15.965Z,2.23
2022-11-20T15:33:42.885Z,2.28
2022-11-20T15:36:09.920Z,2.34
2022-11-20T15:38:36.123Z,2.41
2022-11-20T15:41:02.109Z,2.51
2022-11-20T15:43:27.951Z,2.36
2022-11-20T15:46:20.106Z,2.47
2022-11-20T15:48:54.631Z,2.43
2022-11-20T15:51:28.408Z,2.42
2022-11-20T15:53:55.218Z,2.42
2022-11-20T15:56:20.995Z,2.54
2022-11-20T15:58:47.020Z,2.58
2022-11-20T16:01:15.363Z,2.60
2022-11-20T16:03:41.820Z,2.54
2022-11-20T16:06:08.019Z,2.54
2022-11-20T16:08:33.984Z,2.62
2022-11-20T16:10:59.893Z,2.58
2022-11-20T16:13:44.566Z,2.68
2022-11-20T16:16:22.579Z,2.58
2022-11-20T16:18:49.790Z,2.51
2022-11-20T16:21:16.168Z,2.47
2022-11-20T16:23:45.267Z,2.36
2022-11-20T16:26:20.959Z,2.46
2022-11-20T16:28:46.827Z,2.45
2022-11-20T16:31:15.234Z,2.42
2022-11-20T16:33:41.614Z,2.52
2022-11-20T16:36:12.691Z,2.65
2022-11-20T16:38:38.909Z,2.67
2022-11-20T16:41:05.769Z,2.69
2022-11-20T16:43:31.896Z,2.76
2022-11-20T16:45:57.885Z,2.70
2022-11-20T16:48:23.719Z,2.67
2022-11-20T16:50:53.352Z,2.62
2022-11-20T16:53:21.015Z,2.68
2022-11-20T16:55:46.973Z,2.59
2022-11-20T16:58:14.195Z,2.59
2022-11-20T17:00:40.718Z,2.66
2022-11-20T17:03:06.774Z,2.51
2022-11-20T17:05:33.778Z,2.54
2022-11-20T17:08:00.175Z,2.56
2022-11-20T17:10:26.262Z,2.53
2022-11-20T17:12:52.354Z,2.56
2022-11-20T17:15:18.188Z,2.55
2022-11-20T17:17:44.195Z,2.55
2022-11-20T17:20:11.835Z,2.70
2022-11-20T17:22:38.170Z,2.66
2022-11-20T17:25:04.922Z,2.57
2022-11-20T17:27:31.138Z,2.61
2022-11-20T17:29:58.622Z,2.52
2022-11-20T17:32:24.421Z,2.39
2022-11-20T17:34:50.384Z,2.41
2022-11-20T17:37:16.198Z,2.48
2022-11-20T17:39:44.042Z,2.43
2022-11-20T17:42:29.092Z,2.37
2022-11-20T17:44:57.942Z,2.16
2022-11-20T17:47:24.029Z,2.19
2022-11-20T17:49:49.860Z,2.10
2022-11-20T17:52:15.785Z,2.18
2022-11-20T17:54:41.853Z,2.23
2022-11-20T17:57:27.392Z,2.26
2022-11-20T17:59:53.305Z,2.18
2022-11-20T18:02:19.467Z,2.14
2022-11-20T18:04:45.227Z,2.20
2022-11-20T18:07:11.143Z,2.19
2022-11-20T18:09:37.026Z,2.38
2022-11-20T18:12:02.977Z,2.23
2022-11-20T18:14:31.840Z,2.24
2022-11-20T18:17:03.903Z,2.24
2022-11-20T18:19:33.298Z,2.11
2022-11-20T18:22:00.878Z,2.20
2022-11-20T18:24:26.898Z,2.16
2022-11-20T18:26:52.728Z,2.20
2022-11-20T18:29:18.718Z,2.22
2022-11-20T18:31:44.729Z,2.28
2022-11-20T18:34:13.310Z,2.26
2022-11-20T18:36:40.289Z,2.26
2022-11-20T18:39:06.254Z,2.26
2022-11-20T18:41:50.836Z,2.36
2022-11-20T18:44:43.730Z,2.46
2022-11-20T18:47:14.864Z,2.54
2022-11-20T18:49:42.220Z,2.37
2022-11-20T18:52:08.247Z,2.38
2022-11-20T18:54:36.245Z,2.39
2022-11-20T18:57:02.825Z,2.42
2022-11-20T18:59:29.076Z,2.54
2022-11-20T19:01:55.315Z,2.51
2022-11-20T19:04:22.180Z,2.45
2022-11-20T19:06:55.284Z,2.50
2022-11-20T19:09:22.230Z,2.46
2022-11-20T19:11:48.239Z,2.45
2022-11-20T19:14:14.678Z,2.49
2022-11-20T19:16:42.493Z,2.46
2022-11-20T19:19:09.438Z,2.45
2022-11-20T19:21:38.353Z,2.51
2022-11-20T19:24:05.234Z,2.60
2022-11-20T19:26:33.654Z,2.57
2022-11-20T19:28:59.889Z,2.62
2022-11-20T19:31:26.540Z,2.69
2022-11-20T19:33:58.748Z,2.71
2022-11-20T19:36:27.199Z,2.77
2022-11-20T19:38:53.682Z,2.79
2022-11-20T19:41:28.155Z,2.82
2022-11-20T19:44:05.163Z,2.87
2022-11-20T19:46:32.738Z,3.00
2022-11-20T19:48:58.936Z,2.97
2022-11-20T19:51:30.068Z,3.07
2022-11-20T19:53:57.018Z,3.28
2022-11-20T19:56:23.713Z,3.24
2022-11-20T19:58:49.873Z,3.19
2022-11-20T20:01:19.417Z,3.12
2022-11-20T20:03:46.076Z,3.32
2022-11-20T20:06:17.576Z,3.31
2022-11-20T20:08:44.119Z,3.35
2022-11-20T20:11:15.281Z,3.42
2022-11-20T20:13:41.741Z,3.45
2022-11-20T20:16:12.125Z,3.37
2022-11-20T20:18:38.328Z,3.43
2022-11-20T20:21:06.101Z,3.48
2022-11-20T20:23:32.915Z,3.55
2022-11-20T20:25:59.603Z,3.61
2022-11-20T20:28:26.703Z,3.69
2022-11-20T20:30:52.648Z,3.65
2022-11-20T20:33:18.943Z,3.67
2022-11-20T20:35:44.830Z,3.70
2022-11-20T20:38:10.691Z,3.81
2022-11-20T20:40:36.834Z,3.81
2022-11-20T20:43:03.402Z,3.78
2022-11-20T20:45:29.265Z,3.74
2022-11-20T20:47:55.708Z,3.82
2022-11-20T20:50:21.904Z,3.89
2022-11-20T20:52:48.318Z,3.92
2022-11-20T20:55:14.379Z,3.91
2022-11-20T20:57:40.985Z,3.97
2022-11-20T21:00:08.150Z,4.03
2022-11-20T21:02:34.104Z,4.04
2022-11-20T21:05:00.229Z,4.12
2022-11-20T21:07:26.328Z,4.18
2022-11-20T21:09:52.476Z,4.17
2022-11-20T21:12:18.428Z,4.15
2022-11-20T21:14:44.262Z,4.10
2022-11-20T21:17:14.971Z,4.13
2022-11-20T21:19:41.573Z,4.06
2022-11-20T21:22:09.678Z,4.08
2022-11-20T21:24:36.463Z,4.20
2022-11-20T21:27:06.445Z,4.20
2022-11-20T21:29:33.078Z,4.20
2022-11-20T21:31:59.947Z,4.25
2022-11-20T21:34:26.180Z,4.27
2022-11-20T21:36:52.208Z,4.30
2022-11-20T21:39:20.955Z,4.25
2022-11-20T21:41:46.772Z,4.15
2022-11-20T21:44:31.413Z,4.21
2022-11-20T21:46:57.919Z,4.13
2022-11-20T21:49:23.977Z,4.28
2022-11-20T21:51:49.916Z,4.17
2022-11-20T21:54:16.889Z,4.27
2022-11-20T21:56:42.607Z,4.15
2022-11-20T21:59:12.497Z,4.05
2022-11-20T22:01:38.330Z,4.01
2022-11-20T22:04:04.303Z,4.06
2022-11-20T22:06:32.280Z,4.09
2022-11-20T22:08:58.640Z,4.03
2022-11-20T22:11:24.623Z,4.03
2022-11-20T22:14:09.063Z,4.07
2022-11-20T22:16:36.307Z,4.01
2022-11-20T22:19:03.036Z,3.95
2022-11-20T22:21:30.213Z,4.08
2022-11-20T22:23:56.629Z,3.97
2022-11-20T22:26:24.695Z,3.97
2022-11-20T22:28:52.716Z,4.03
2022-11-20T22:31:20.281Z,4.05
2022-11-20T22:33:46.141Z,3.92
2022-11-20T22:36:18.221Z,4.00
2022-11-20T22:38:44.415Z,4.03
2022-11-20T22:41:15.487Z,3.93
2022-11-20T22:43:42.306Z,3.95
2022-11-20T22:46:17.607Z,3.95
2022-11-20T22:48:48.767Z,4.00
2022-11-20T22:51:16.227Z,3.79
2022-11-20T22:53:42.929Z,3.91
2022-11-20T22:56:11.846Z,3.91
2022-11-20T22:58:39.122Z,3.79
2022-11-20T23:01:16.424Z,3.72
2022-11-20T23:03:44.790Z,3.62
2022-11-20T23:06:12.206Z,3.63
2022-11-20T23:08:39.793Z,3.62
2022-11-20T23:11:27.225Z,3.68
2022-11-20T23:13:58.443Z,3.67
2022-11-20T23:16:26.708Z,3.67
2022-11-20T23:18:58.004Z,3.59
2022-11-20T23:21:25.202Z,3.55
2022-11-20T23:23:54.074Z,3.61
2022-11-20T23:26:22.810Z,3.53
2022-11-20T23:28:48.760Z,3.47
2022-11-20T23:31:15.578Z,3.59
2022-11-20T23:33:43.705Z,3.50
2022-11-20T23:36:10.275Z,3.54
2022-11-20T23:38:36.834Z,3.39
2022-11-20T23:41:03.571Z,3.31
2022-11-20T23:43:29.844Z,3.25
2022-11-20T23:45:57.404Z,3.26
2022-11-20T23:48:28.782Z,3.32
2022-11-20T23:50:55.019Z,3.25
2022-11-20T23:53:21.823Z,3.30
2022-11-20T23:55:52.778Z,3.32
2022-11-20T23:58:19.743Z,3.32
